Time;durP1;ratioP1;P1;durP2;ratioP2;P2;SDS_P1;SDS_P2;PMS_P1;PMS_P2;Temp;Humidity;BMP_temperature;BMP_pressure;BME280_temperature;BME280_humidity;BME280_pressure;Samples;Min_cycle;Max_cycle;Signal;HPM_P1;HPM_P2
2022/03/28 00:01:16;;;;;;;6.00;3.88;;;7.70;99.90;;;;;;5020269;28;20053;-62
2022/03/28 00:03:43;;;;;;;5.55;3.22;;;7.70;99.90;;;;;;5019797;28;20967;-61
2022/03/28 00:06:10;;;;;;;6.25;3.58;;;7.80;99.90;;;;;;5000341;28;20500;-62
2022/03/28 00:08:37;;;;;;;4.68;3.30;;;7.80;99.90;;;;;;5019237;28;20037;-61
2022/03/28 00:11:06;;;;;;;5.10;3.60;;;7.80;99.90;;;;;;5021238;28;20136;-61
2022/03/28 00:13:34;;;;;;;4.90;3.22;;;7.90;99.90;;;;;;5022496;28;20097;-61
2022/03/28 00:16:00;;;;;;;4.35;2.88;;;7.90;99.90;;;;;;5023845;28;20077;-59
2022/03/28 00:18:27;;;;;;;6.10;4.00;;;7.90;99.90;;;;;;5023525;28;20045;-61
2022/03/28 00:20:55;;;;;;;5.13;3.15;;;7.90;99.90;;;;;;5023499;28;20065;-61
2022/03/28 00:23:22;;;;;;;3.58;2.75;;;8.00;99.90;;;;;;5016501;28;20077;-61
2022/03/28 00:25:49;;;;;;;4.45;2.83;;;8.00;99.90;;;;;;5005050;28;20140;-61
2022/03/28 00:28:16;;;;;;;4.80;3.00;;;8.00;99.90;;;;;;5004179;28;20132;-61
2022/03/28 00:30:43;;;;;;;6.10;3.63;;;8.00;99.90;;;;;;5007286;28;20132;-60
2022/03/28 00:33:11;;;;;;;4.90;3.05;;;8.00;99.90;;;;;;5004794;28;20050;-62
2022/03/28 00:35:38;;;;;;;4.28;2.95;;;8.00;99.90;;;;;;5021601;28;20050;-60
2022/03/28 00:38:05;;;;;;;5.10;2.65;;;8.00;99.90;;;;;;5022648;28;20141;-61
2022/03/28 00:40:32;;;;;;;5.78;2.83;;;8.00;99.90;;;;;;5022852;28;20115;-61
2022/03/28 00:43:00;;;;;;;3.88;2.70;;;8.00;99.90;;;;;;5023224;28;20167;-61
2022/03/28 00:45:27;;;;;;;5.70;3.20;;;8.00;99.90;;;;;;5022156;28;20072;-61
2022/03/28 00:47:54;;;;;;;4.20;2.60;;;8.10;99.90;;;;;;5023750;28;20137;-61
2022/03/28 00:50:21;;;;;;;3.95;2.92;;;8.10;99.90;;;;;;5023149;28;20476;-61
2022/03/28 00:52:47;;;;;;;5.30;2.75;;;8.10;99.90;;;;;;5022665;28;20427;-61
2022/03/28 00:55:14;;;;;;;4.55;3.13;;;8.10;99.90;;;;;;4990644;28;20082;-60
2022/03/28 00:57:41;;;;;;;4.63;2.97;;;8.00;99.90;;;;;;5003639;28;20393;-61
2022/03/28 01:00:09;;;;;;;3.88;2.80;;;8.00;99.90;;;;;;5002315;28;20481;-61
2022/03/28 01:02:37;;;;;;;4.60;2.95;;;8.00;99.90;;;;;;5017625;28;20164;-60
2022/03/28 01:05:04;;;;;;;6.35;2.90;;;8.10;99.90;;;;;;5008427;28;20057;-61
2022/03/28 01:07:31;;;;;;;4.13;3.00;;;8.10;99.90;;;;;;5014567;28;20477;-60
2022/03/28 01:10:01;;;;;;;4.80;3.05;;;8.10;99.90;;;;;;5024013;28;20432;-61
2022/03/28 01:12:30;;;;;;;5.18;2.75;;;8.10;99.90;;;;;;5006534;28;20153;-61
2022/03/28 01:14:57;;;;;;;4.25;2.55;;;8.10;99.90;;;;;;5020342;28;20068;-61
2022/03/28 01:20:09;;;;;;;4.28;2.92;;;8.10;99.90;;;;;;5018648;28;20049;-61
2022/03/28 01:22:36;;;;;;;6.65;3.25;;;8.10;99.90;;;;;;5022268;28;20076;-61
2022/03/28 01:25:05;;;;;;;4.53;2.65;;;8.10;99.90;;;;;;5022601;28;20160;-60
2022/03/28 01:27:32;;;;;;;4.72;3.00;;;8.10;99.90;;;;;;5022675;28;20140;-61
2022/03/28 01:29:59;;;;;;;4.30;2.83;;;8.10;99.90;;;;;;5002890;28;20152;-61
2022/03/28 01:32:25;;;;;;;6.78;4.05;;;8.10;99.90;;;;;;5022829;28;20075;-61
2022/03/28 01:34:52;;;;;;;3.67;2.70;;;8.10;99.90;;;;;;5023968;28;20642;-61
2022/03/28 01:37:19;;;;;;;5.80;2.47;;;8.20;99.90;;;;;;5025031;28;20471;-61
2022/03/28 01:39:46;;;;;;;5.25;3.38;;;8.20;99.90;;;;;;5023728;28;20077;-61
2022/03/28 01:42:12;;;;;;;5.57;3.05;;;8.20;99.90;;;;;;5024810;28;20114;-61
2022/03/28 01:44:39;;;;;;;5.30;3.40;;;8.10;99.90;;;;;;5023419;28;20428;-61
2022/03/28 01:47:06;;;;;;;8.02;4.25;;;8.10;99.90;;;;;;5025218;28;20165;-61
2022/03/28 01:49:32;;;;;;;5.38;3.53;;;8.10;99.90;;;;;;5023997;28;20160;-61
2022/03/28 01:51:59;;;;;;;5.97;3.58;;;8.10;99.90;;;;;;5024907;28;20502;-61
2022/03/28 01:54:26;;;;;;;6.50;4.78;;;8.00;99.90;;;;;;5024114;28;20087;-61
2022/03/28 01:56:53;;;;;;;5.32;3.83;;;8.00;99.90;;;;;;5024899;28;20057;-61
2022/03/28 01:59:19;;;;;;;5.28;3.67;;;8.00;99.90;;;;;;5023003;28;20133;-61
2022/03/28 02:01:46;;;;;;;5.82;4.00;;;8.00;99.90;;;;;;5024903;28;20136;-61
2022/03/28 02:04:13;;;;;;;5.78;3.90;;;7.90;99.90;;;;;;5024991;28;20103;-61
2022/03/28 02:06:40;;;;;;;6.05;3.80;;;7.90;99.90;;;;;;5023867;28;20623;-60
2022/03/28 02:09:06;;;;;;;6.72;4.05;;;8.00;99.90;;;;;;5024634;28;20081;-61
2022/03/28 02:11:34;;;;;;;4.38;3.83;;;8.00;99.90;;;;;;5024329;28;20140;-61
2022/03/28 02:14:01;;;;;;;4.32;3.45;;;8.00;99.90;;;;;;5022731;28;20513;-61
2022/03/28 02:16:27;;;;;;;6.00;3.83;;;8.10;99.90;;;;;;5024012;28;20117;-61
2022/03/28 02:18:56;;;;;;;6.80;4.13;;;8.10;99.90;;;;;;5023566;28;20055;-61
2022/03/28 02:21:22;;;;;;;5.78;4.60;;;8.00;99.90;;;;;;5002511;28;20085;-61
2022/03/28 02:23:49;;;;;;;6.55;4.40;;;8.00;99.90;;;;;;5004876;28;20092;-61
2022/03/28 02:26:16;;;;;;;5.15;3.63;;;8.00;99.90;;;;;;5023445;28;20505;-60
2022/03/28 02:28:43;;;;;;;6.45;4.80;;;7.90;99.90;;;;;;5024133;28;20114;-61
2022/03/28 02:31:12;;;;;;;6.70;4.18;;;7.90;99.90;;;;;;5022592;28;20497;-61
2022/03/28 02:33:39;;;;;;;6.20;4.30;;;7.90;99.90;;;;;;5023844;28;20053;-61
2022/03/28 02:36:06;;;;;;;5.07;4.00;;;7.90;99.90;;;;;;5023612;28;20159;-61
2022/03/28 02:38:33;;;;;;;6.03;4.50;;;7.90;99.90;;;;;;5023748;28;20499;-61
2022/03/28 02:41:00;;;;;;;5.70;4.13;;;8.00;99.90;;;;;;5024089;28;20073;-61
2022/03/28 02:43:27;;;;;;;5.20;4.10;;;7.90;99.90;;;;;;5022875;28;20084;-61
2022/03/28 02:45:54;;;;;;;7.28;4.88;;;7.90;99.90;;;;;;5021984;28;20158;-61
2022/03/28 02:48:21;;;;;;;7.50;5.28;;;7.90;99.90;;;;;;5023589;28;20514;-61
2022/03/28 02:50:49;;;;;;;5.93;4.75;;;7.90;99.90;;;;;;5023530;28;20140;-61
2022/03/28 02:53:16;;;;;;;6.97;5.32;;;7.80;99.90;;;;;;5023980;28;20160;-61
2022/03/28 02:55:43;;;;;;;9.00;5.32;;;7.80;99.90;;;;;;5024116;28;20058;-60
2022/03/28 02:58:10;;;;;;;7.18;5.20;;;7.80;99.90;;;;;;5024012;28;20175;-61
2022/03/28 03:00:37;;;;;;;8.02;5.45;;;7.80;99.90;;;;;;5022199;28;20160;-61
2022/03/28 03:03:04;;;;;;;7.30;4.60;;;7.80;99.90;;;;;;5023598;28;20129;-61
2022/03/28 03:05:31;;;;;;;6.90;5.38;;;7.80;99.90;;;;;;5023101;28;20486;-61
2022/03/28 03:07:58;;;;;;;6.28;4.97;;;7.70;99.90;;;;;;5022974;28;20133;-61
2022/03/28 03:10:24;;;;;;;7.40;5.25;;;7.70;99.90;;;;;;5023814;28;20136;-61
2022/03/28 03:12:51;;;;;;;7.18;4.93;;;7.70;99.90;;;;;;5024185;28;20073;-61
2022/03/28 03:15:18;;;;;;;6.53;5.18;;;7.70;99.90;;;;;;5021462;28;20128;-61
2022/03/28 03:17:45;;;;;;;6.95;5.32;;;7.70;99.90;;;;;;5023298;28;20076;-61
2022/03/28 03:20:11;;;;;;;8.25;5.18;;;7.70;99.90;;;;;;5022523;28;20151;-61
2022/03/28 03:22:38;;;;;;;6.25;5.38;;;7.70;99.90;;;;;;5022409;28;20128;-61
2022/03/28 03:25:05;;;;;;;6.90;4.43;;;7.70;99.90;;;;;;5022791;28;20053;-61
2022/03/28 03:27:34;;;;;;;5.85;4.43;;;7.70;99.90;;;;;;5023600;28;20085;-61
2022/03/28 03:30:01;;;;;;;6.30;5.05;;;7.80;99.90;;;;;;5004814;28;20132;-61
2022/03/28 03:32:28;;;;;;;5.20;4.50;;;7.80;99.90;;;;;;5023143;28;20499;-61
2022/03/28 03:34:55;;;;;;;6.07;4.15;;;7.80;99.90;;;;;;5022330;28;20168;-60
2022/03/28 03:37:21;;;;;;;6.68;5.18;;;7.80;99.90;;;;;;5022712;28;20798;-61
2022/03/28 03:39:48;;;;;;;6.05;4.80;;;7.90;99.90;;;;;;5022788;28;20504;-61
2022/03/28 03:42:15;;;;;;;5.85;4.82;;;7.90;99.90;;;;;;5022877;28;20476;-61
2022/03/28 03:44:41;;;;;;;5.30;4.80;;;7.90;99.90;;;;;;5036716;28;20084;-61
2022/03/28 03:47:08;;;;;;;7.00;4.93;;;7.90;99.90;;;;;;5022230;28;20183;-61
2022/03/28 03:49:35;;;;;;;6.22;4.68;;;7.80;99.90;;;;;;5022013;28;20188;-61
2022/03/28 03:52:02;;;;;;;7.20;6.07;;;7.90;99.90;;;;;;5023040;28;20144;-62
2022/03/28 03:54:30;;;;;;;8.95;5.50;;;7.80;99.90;;;;;;5022694;28;20133;-61
2022/03/28 03:56:56;;;;;;;6.22;4.90;;;7.80;99.90;;;;;;5021006;28;20165;-62
2022/03/28 03:59:23;;;;;;;6.70;5.10;;;7.70;99.90;;;;;;5022203;28;20132;-61
2022/03/28 04:01:50;;;;;;;7.38;5.35;;;7.80;99.90;;;;;;5018101;28;20417;-60
2022/03/28 04:04:18;;;;;;;8.20;5.93;;;7.70;99.90;;;;;;5013734;28;20041;-61
2022/03/28 04:06:44;;;;;;;6.35;5.30;;;7.70;99.90;;;;;;5014398;28;20076;-61
2022/03/28 04:09:11;;;;;;;7.25;5.32;;;7.70;99.90;;;;;;5014467;28;20136;-61
2022/03/28 04:11:38;;;;;;;8.52;5.28;;;7.70;99.90;;;;;;5016398;28;20135;-61
2022/03/28 04:14:05;;;;;;;8.65;5.85;;;7.70;99.90;;;;;;5022475;28;20049;-61
2022/03/28 04:16:31;;;;;;;7.32;6.07;;;7.70;99.90;;;;;;5018691;28;20141;-61
2022/03/28 04:18:58;;;;;;;8.38;6.40;;;7.60;99.90;;;;;;5022111;28;20484;-61
2022/03/28 04:21:25;;;;;;;7.78;5.70;;;7.60;99.90;;;;;;5021613;28;20140;-60
2022/03/28 04:23:52;;;;;;;6.45;5.07;;;7.60;99.90;;;;;;5022308;28;20136;-61
2022/03/28 04:26:19;;;;;;;7.70;5.70;;;7.50;99.90;;;;;;5022191;28;20533;-60
2022/03/28 04:28:45;;;;;;;6.97;5.03;;;7.50;99.90;;;;;;5022242;28;20048;-61
2022/03/28 04:31:12;;;;;;;7.47;5.40;;;7.40;99.90;;;;;;5021855;28;20147;-61
2022/03/28 04:33:39;;;;;;;6.55;5.07;;;7.40;99.90;;;;;;5020907;28;20067;-61
2022/03/28 04:36:06;;;;;;;7.30;5.53;;;7.40;99.90;;;;;;5022195;28;20045;-61
2022/03/28 04:38:33;;;;;;;6.13;5.15;;;7.40;99.90;;;;;;5022980;28;21043;-61
2022/03/28 04:40:59;;;;;;;7.35;4.82;;;7.40;99.90;;;;;;5022462;28;20626;-60
2022/03/28 04:43:26;;;;;;;6.32;4.93;;;7.40;99.90;;;;;;5021839;28;20099;-61
2022/03/28 04:45:53;;;;;;;8.25;5.95;;;7.50;99.90;;;;;;5021205;28;20136;-61
2022/03/28 04:48:20;;;;;;;7.05;5.88;;;7.50;99.90;;;;;;5021866;28;20049;-61
2022/03/28 04:50:46;;;;;;;7.30;5.88;;;7.50;99.90;;;;;;5022168;28;20132;-61
2022/03/28 04:53:13;;;;;;;8.27;6.13;;;7.50;99.90;;;;;;5020524;28;20095;-60
2022/03/28 04:55:40;;;;;;;7.43;5.80;;;7.40;99.90;;;;;;5022713;28;20140;-61
2022/03/28 04:58:07;;;;;;;6.82;5.47;;;7.40;99.90;;;;;;5024273;28;20050;-61
2022/03/28 05:00:33;;;;;;;6.88;5.45;;;7.40;99.90;;;;;;5024484;28;20120;-61
2022/03/28 05:03:00;;;;;;;6.72;5.03;;;7.50;99.90;;;;;;5021666;28;20428;-61
2022/03/28 05:05:27;;;;;;;7.03;5.03;;;7.50;99.90;;;;;;5023784;28;20045;-61
2022/03/28 05:07:54;;;;;;;5.55;4.70;;;7.50;99.90;;;;;;5019829;28;20464;-61
2022/03/28 05:10:20;;;;;;;7.05;4.78;;;7.40;99.90;;;;;;5020673;28;20438;-60
2022/03/28 05:12:47;;;;;;;6.10;5.28;;;7.50;99.90;;;;;;5022060;28;20053;-61
2022/03/28 05:15:14;;;;;;;5.78;4.80;;;7.50;99.90;;;;;;5022950;28;20132;-61
2022/03/28 05:17:41;;;;;;;6.80;4.72;;;7.50;99.90;;;;;;5019932;28;20473;-61
2022/03/28 05:20:09;;;;;;;6.78;4.85;;;7.50;99.90;;;;;;5014989;28;20563;-61
2022/03/28 05:22:36;;;;;;;7.68;5.85;;;7.40;99.90;;;;;;5011950;28;20108;-61
2022/03/28 05:25:03;;;;;;;7.18;5.30;;;7.50;99.90;;;;;;5013176;28;20046;-61
2022/03/28 05:27:30;;;;;;;7.63;4.90;;;7.50;99.90;;;;;;5011997;28;20049;-60
2022/03/28 05:29:58;;;;;;;9.23;6.57;;;7.50;99.90;;;;;;5012774;28;20460;-60
2022/03/28 05:32:25;;;;;;;7.70;6.15;;;7.40;99.90;;;;;;5010027;28;20156;-61
2022/03/28 05:34:52;;;;;;;8.27;5.75;;;7.40;99.90;;;;;;5013429;28;20141;-60
2022/03/28 05:37:19;;;;;;;7.10;5.63;;;7.40;99.90;;;;;;5008100;28;20081;-61
2022/03/28 05:39:46;;;;;;;7.63;5.90;;;7.40;99.90;;;;;;5011724;28;20148;-60
2022/03/28 05:42:13;;;;;;;6.18;5.03;;;7.40;99.90;;;;;;5007622;28;20076;-60
2022/03/28 05:44:41;;;;;;;8.50;5.82;;;7.40;99.90;;;;;;5006826;28;20145;-60
2022/03/28 05:47:07;;;;;;;7.43;5.47;;;7.40;99.90;;;;;;5011121;28;20055;-61
2022/03/28 05:49:35;;;;;;;8.10;5.95;;;7.40;99.90;;;;;;5007196;28;20253;-61
2022/03/28 05:52:01;;;;;;;9.15;7.20;;;7.30;99.90;;;;;;5012753;28;20442;-61
2022/03/28 05:54:28;;;;;;;9.30;6.00;;;7.30;99.90;;;;;;5013285;28;20049;-61
2022/03/28 05:56:55;;;;;;;8.73;6.22;;;7.30;99.90;;;;;;5017827;28;20144;-61
2022/03/28 05:59:22;;;;;;;9.82;6.95;;;7.30;99.90;;;;;;5014684;28;20240;-61
2022/03/28 06:01:48;;;;;;;10.60;7.68;;;7.30;99.90;;;;;;5000996;28;20068;-61
2022/03/28 06:04:15;;;;;;;8.63;6.07;;;7.20;99.90;;;;;;5013247;28;20057;-61
2022/03/28 06:06:42;;;;;;;8.95;6.28;;;7.20;99.90;;;;;;5016641;28;20515;-61
2022/03/28 06:09:09;;;;;;;9.55;6.97;;;7.20;99.90;;;;;;5005989;28;20481;-61
2022/03/28 06:11:36;;;;;;;9.70;7.40;;;7.20;99.90;;;;;;5009623;28;20152;-61
2022/03/28 06:14:03;;;;;;;10.45;7.05;;;7.20;99.90;;;;;;5006910;28;20145;-61
2022/03/28 06:16:30;;;;;;;9.75;7.32;;;7.20;99.90;;;;;;5016688;28;20148;-61
2022/03/28 06:18:58;;;;;;;9.80;6.97;;;7.20;99.90;;;;;;5018834;28;20595;-61
2022/03/28 06:21:25;;;;;;;10.80;7.97;;;7.20;99.90;;;;;;5010580;28;20057;-61
2022/03/28 06:23:51;;;;;;;9.07;6.45;;;7.10;99.90;;;;;;5016383;28;20136;-62
2022/03/28 06:26:18;;;;;;;9.70;6.70;;;7.10;99.90;;;;;;5018901;28;20140;-61
2022/03/28 06:28:46;;;;;;;8.02;6.47;;;7.10;99.90;;;;;;5019048;28;20133;-61
2022/03/28 06:31:14;;;;;;;9.13;6.85;;;7.00;99.90;;;;;;5016838;28;20424;-61
2022/03/28 06:33:41;;;;;;;9.13;6.45;;;7.00;99.90;;;;;;5018843;28;20084;-61
2022/03/28 06:36:08;;;;;;;9.30;7.13;;;7.00;99.90;;;;;;5018825;28;20442;-61
2022/03/28 06:38:35;;;;;;;10.05;7.35;;;7.00;99.90;;;;;;5019438;28;20125;-61
2022/03/28 06:41:03;;;;;;;10.63;7.70;;;7.00;99.90;;;;;;5018421;28;20413;-60
2022/03/28 06:43:29;;;;;;;8.50;6.22;;;7.00;99.90;;;;;;5018702;28;20195;-61
2022/03/28 06:45:56;;;;;;;8.65;6.20;;;7.10;99.90;;;;;;5018211;28;20132;-61
2022/03/28 06:48:23;;;;;;;7.60;5.40;;;7.10;99.90;;;;;;5018483;28;20214;-61
2022/03/28 06:51:00;;;;;;;9.18;6.93;;;7.10;99.90;;;;;;5017805;28;20049;-61
2022/03/28 06:53:27;;;;;;;7.68;5.97;;;7.10;99.90;;;;;;5018545;28;20117;-61
2022/03/28 06:55:54;;;;;;;7.90;5.88;;;7.10;99.90;;;;;;5018680;28;20492;-61
2022/03/28 06:58:20;;;;;;;9.15;6.20;;;7.10;99.90;;;;;;5018520;28;20107;-61
2022/03/28 07:00:47;;;;;;;8.68;6.68;;;7.10;99.90;;;;;;5017878;28;20056;-61
2022/03/28 07:03:14;;;;;;;7.65;6.00;;;7.10;99.90;;;;;;5017977;28;20053;-61
2022/03/28 07:05:43;;;;;;;10.65;7.30;;;7.10;99.90;;;;;;5017665;28;20488;-60
2022/03/28 07:08:10;;;;;;;8.63;6.53;;;7.20;99.90;;;;;;5018054;28;20156;-61
2022/03/28 07:10:37;;;;;;;10.73;7.45;;;7.20;99.90;;;;;;5018241;28;20092;-61
2022/03/28 07:13:04;;;;;;;8.05;5.78;;;7.30;99.90;;;;;;5016857;28;20049;-61
2022/03/28 07:15:31;;;;;;;9.15;6.28;;;7.30;99.90;;;;;;5010796;28;20100;-61
2022/03/28 07:18:02;;;;;;;9.75;7.03;;;7.40;99.90;;;;;;5003164;28;20060;-61
2022/03/28 07:20:31;;;;;;;7.90;6.00;;;7.50;99.90;;;;;;5009778;28;20045;-61
2022/03/28 07:22:58;;;;;;;9.45;7.18;;;7.50;99.90;;;;;;5013421;28;20476;-61
2022/03/28 07:25:25;;;;;;;9.13;6.90;;;7.40;99.90;;;;;;4998279;28;20129;-62
2022/03/28 07:27:52;;;;;;;8.38;6.38;;;7.40;99.90;;;;;;5004776;28;20059;-61
2022/03/28 07:30:20;;;;;;;9.77;7.07;;;7.40;99.90;;;;;;4998099;28;20065;-61
2022/03/28 07:32:47;;;;;;;9.77;6.88;;;7.50;99.90;;;;;;5004525;28;20179;-61
2022/03/28 07:35:15;;;;;;;9.73;7.28;;;7.50;99.90;;;;;;5008740;28;20165;-61
2022/03/28 07:37:43;;;;;;;10.55;7.15;;;7.60;99.90;;;;;;5009226;28;20107;-61
2022/03/28 07:40:10;;;;;;;10.90;8.40;;;7.60;99.90;;;;;;5017549;28;20125;-61
2022/03/28 07:42:37;;;;;;;9.93;7.38;;;7.60;99.90;;;;;;5002999;28;20080;-61
2022/03/28 07:45:05;;;;;;;10.13;8.23;;;7.60;99.90;;;;;;5017927;28;20180;-61
2022/03/28 07:47:31;;;;;;;11.23;8.55;;;7.60;99.90;;;;;;5016834;28;20057;-61
2022/03/28 07:49:59;;;;;;;9.73;7.43;;;7.70;99.90;;;;;;5017481;28;20515;-61
2022/03/28 07:52:26;;;;;;;10.95;8.27;;;7.70;99.90;;;;;;5016685;28;20054;-61
2022/03/28 07:54:53;;;;;;;11.77;8.82;;;7.80;99.90;;;;;;5014029;28;20045;-61
2022/03/28 07:57:19;;;;;;;11.25;8.32;;;7.90;99.90;;;;;;5009047;28;20425;-61
2022/03/28 07:59:47;;;;;;;9.35;7.68;;;8.00;99.90;;;;;;5011004;28;20133;-61
2022/03/28 08:02:34;;;;;;;9.50;6.93;;;8.10;99.90;;;;;;5005445;28;20059;-62
2022/03/28 08:05:02;;;;;;;9.35;7.57;;;8.20;99.90;;;;;;5016939;28;20056;-62
2022/03/28 08:07:29;;;;;;;8.77;6.85;;;8.30;99.90;;;;;;5006309;28;20083;-61
2022/03/28 08:09:56;;;;;;;9.20;6.88;;;8.40;99.90;;;;;;5013879;28;20317;-61
2022/03/28 08:12:22;;;;;;;9.63;8.38;;;8.50;99.90;;;;;;5007383;28;20192;-61
2022/03/28 08:14:50;;;;;;;9.35;7.05;;;8.60;99.90;;;;;;5017786;28;20132;-61
2022/03/28 08:17:18;;;;;;;9.20;7.53;;;8.70;99.90;;;;;;4999952;28;20524;-61
2022/03/28 08:19:46;;;;;;;8.43;6.78;;;8.70;99.90;;;;;;4997929;28;20440;-62
2022/03/28 08:22:14;;;;;;;10.93;7.72;;;8.80;99.90;;;;;;4998239;28;20063;-61
2022/03/28 08:24:41;;;;;;;9.43;7.32;;;8.90;99.90;;;;;;4998265;28;20136;-62
2022/03/28 08:27:07;;;;;;;9.60;7.18;;;9.00;99.90;;;;;;4997816;28;20145;-61
2022/03/28 08:29:34;;;;;;;9.93;7.05;;;9.10;99.90;;;;;;5014863;28;20049;-62
2022/03/28 08:32:04;;;;;;;11.32;7.35;;;9.10;99.90;;;;;;5018516;28;20774;-61
2022/03/28 08:34:36;;;;;;;9.70;7.05;;;9.20;99.90;;;;;;5017563;28;20049;-61
2022/03/28 08:37:03;;;;;;;10.10;6.68;;;9.30;99.90;;;;;;5002046;28;20148;-61
2022/03/28 08:39:30;;;;;;;10.50;7.78;;;9.40;99.90;;;;;;5015581;28;20439;-61
2022/03/28 08:41:57;;;;;;;9.55;8.07;;;9.30;99.90;;;;;;5003817;28;20075;-61
2022/03/28 08:44:26;;;;;;;10.38;8.80;;;9.40;99.90;;;;;;5004824;28;20060;-61
2022/03/28 08:46:55;;;;;;;11.75;9.18;;;9.40;99.90;;;;;;5019729;28;20049;-61
2022/03/28 08:49:21;;;;;;;11.52;8.48;;;9.40;99.90;;;;;;5013324;28;20149;-61
2022/03/28 08:51:49;;;;;;;12.85;9.50;;;9.40;99.90;;;;;;5012531;28;20144;-62
2022/03/28 08:54:16;;;;;;;12.93;9.57;;;9.40;99.90;;;;;;5013994;28;20060;-61
2022/03/28 08:56:43;;;;;;;13.43;10.32;;;9.50;99.90;;;;;;5002823;28;20221;-61
2022/03/28 08:59:10;;;;;;;10.68;9.25;;;9.50;99.90;;;;;;5009675;28;20124;-61
2022/03/28 09:01:37;;;;;;;11.73;9.32;;;9.50;99.90;;;;;;5008607;28;20528;-61
2022/03/28 09:04:08;;;;;;;13.02;10.05;;;9.60;99.90;;;;;;5021063;28;20409;-62
2022/03/28 09:06:39;;;;;;;10.82;9.07;;;9.70;99.90;;;;;;5007985;28;20112;-62
2022/03/28 09:09:09;;;;;;;12.02;10.23;;;9.80;99.90;;;;;;5001661;28;20367;-62
2022/03/28 09:11:36;;;;;;;13.77;10.77;;;9.80;99.90;;;;;;5008400;28;20516;-62
2022/03/28 09:14:03;;;;;;;14.30;10.50;;;9.80;99.90;;;;;;4998964;28;20046;-61
2022/03/28 09:16:34;;;;;;;13.20;10.65;;;9.80;99.90;;;;;;5008224;28;20107;-62
2022/03/28 09:19:09;;;;;;;13.48;10.25;;;9.80;99.90;;;;;;5018034;28;20555;-62
2022/03/28 09:21:36;;;;;;;12.38;9.60;;;10.00;99.90;;;;;;5018772;28;20264;-62
2022/03/28 09:24:04;;;;;;;14.43;10.43;;;10.10;99.90;;;;;;5020638;28;20181;-62
2022/03/28 09:26:31;;;;;;;11.75;9.80;;;10.30;99.90;;;;;;5013986;28;20141;-61
2022/03/28 09:29:01;;;;;;;13.57;10.93;;;10.40;99.90;;;;;;5001471;28;20143;-61
2022/03/28 09:31:44;;;;;;;13.05;10.80;;;10.40;99.90;;;;;;5000790;28;20511;-61
2022/03/28 09:34:12;;;;;;;12.30;10.95;;;10.30;99.90;;;;;;5016378;28;20156;-62
2022/03/28 09:36:51;;;;;;;12.43;9.88;;;10.30;99.90;;;;;;5018891;28;20046;-58
2022/03/28 09:39:19;;;;;;;10.23;8.50;;;10.40;99.90;;;;;;5015052;28;20073;-61
2022/03/28 09:41:57;;;;;;;11.40;9.30;;;10.50;99.90;;;;;;5013638;28;20500;-62
2022/03/28 09:44:34;;;;;;;13.05;9.60;;;10.80;99.90;;;;;;5008596;28;20147;-61
2022/03/28 09:47:09;;;;;;;12.00;9.35;;;10.90;99.90;;;;;;5017736;28;20128;-61
2022/03/28 09:49:37;;;;;;;10.32;8.27;;;10.90;99.90;;;;;;5013964;28;20093;-62
2022/03/28 09:52:25;;;;;;;11.70;9.25;;;11.10;99.90;;;;;;5013374;28;20149;-62
2022/03/28 09:54:55;;;;;;;11.30;9.55;;;11.10;99.90;;;;;;5004104;28;20045;-61
2022/03/28 09:57:26;;;;;;;15.63;11.20;;;11.00;99.90;;;;;;5006642;28;20138;-61
2022/03/28 09:59:53;;;;;;;12.77;11.35;;;10.90;99.90;;;;;;5014487;28;20139;-62
2022/03/28 10:02:24;;;;;;;11.98;9.57;;;10.80;99.90;;;;;;5013139;28;20552;-62
2022/03/28 10:04:53;;;;;;;14.45;10.30;;;11.00;99.90;;;;;;4997010;28;20123;-62
2022/03/28 10:07:20;;;;;;;14.80;12.35;;;10.90;99.90;;;;;;5008441;28;20192;-62
2022/03/28 10:09:48;;;;;;;14.63;12.40;;;10.80;99.90;;;;;;5010497;28;20061;-61
2022/03/28 10:12:14;;;;;;;14.05;11.00;;;10.60;99.90;;;;;;5000847;28;20169;-62
2022/03/28 10:14:42;;;;;;;13.32;9.82;;;10.70;99.90;;;;;;4999747;28;20085;-62
2022/03/28 10:17:08;;;;;;;14.23;11.73;;;10.90;99.90;;;;;;4998422;28;20702;-62
2022/03/28 10:19:38;;;;;;;15.93;11.32;;;10.80;99.90;;;;;;4998801;28;20548;-62
2022/03/28 10:22:28;;;;;;;12.50;10.13;;;10.70;99.90;;;;;;4999012;28;20053;-62
2022/03/28 10:24:57;;;;;;;12.65;9.90;;;10.70;99.90;;;;;;4998903;28;20077;-61
2022/03/28 10:27:24;;;;;;;12.73;9.82;;;10.80;99.90;;;;;;4981926;28;20141;-62
2022/03/28 10:29:52;;;;;;;12.27;10.40;;;10.80;99.90;;;;;;4981304;28;20565;-62
2022/03/28 10:32:20;;;;;;;15.95;12.65;;;10.80;99.90;;;;;;4997048;28;20128;-62
2022/03/28 10:34:52;;;;;;;16.90;12.88;;;10.90;99.90;;;;;;4999036;28;20116;-62
2022/03/28 10:37:29;;;;;;;15.88;12.85;;;10.80;99.90;;;;;;4997736;28;20506;-62
2022/03/28 10:40:19;;;;;;;12.13;10.30;;;10.80;99.90;;;;;;4999317;28;20460;-62
2022/03/28 10:43:09;;;;;;;13.35;10.93;;;11.00;99.90;;;;;;4998932;28;20093;-62
2022/03/28 10:45:50;;;;;;;12.50;10.80;;;11.20;99.90;;;;;;4998676;28;20053;-61
2022/03/28 10:48:34;;;;;;;14.05;11.02;;;11.20;99.90;;;;;;4998377;28;20057;-62
2022/03/28 10:51:09;;;;;;;13.10;10.98;;;11.40;99.90;;;;;;5002845;28;20217;-62
2022/03/28 10:53:41;;;;;;;14.95;11.77;;;11.50;99.90;;;;;;4998115;28;20145;-62
2022/03/28 10:56:13;;;;;;;14.68;12.60;;;11.60;99.90;;;;;;4998507;28;20073;-62
2022/03/28 10:58:45;;;;;;;12.95;11.60;;;11.50;99.90;;;;;;5003519;28;20056;-62
2022/03/28 11:01:19;;;;;;;13.05;10.48;;;11.60;99.90;;;;;;5015386;28;20160;-62
2022/03/28 11:03:52;;;;;;;13.95;11.05;;;11.70;99.90;;;;;;5010473;28;20129;-61
2022/03/28 11:06:45;;;;;;;13.80;11.98;;;11.90;99.90;;;;;;5008672;28;20551;-61
2022/03/28 11:09:12;;;;;;;13.75;11.52;;;11.90;99.90;;;;;;5022425;28;20448;-61
2022/03/28 11:12:00;;;;;;;12.93;11.63;;;12.10;99.90;;;;;;5017690;28;20529;-61
2022/03/28 11:14:53;;;;;;;14.02;11.95;;;12.20;99.90;;;;;;5002757;28;20050;-61
2022/03/28 11:17:21;;;;;;;14.40;12.32;;;12.20;99.90;;;;;;5002127;28;20125;-61
2022/03/28 11:20:02;;;;;;;15.25;12.25;;;12.20;99.90;;;;;;5000186;28;20384;-61
2022/03/28 11:23:09;;;;;;;13.98;12.05;;;12.40;99.90;;;;;;5006226;28;20164;-61
2022/03/28 11:25:42;;;;;;;14.63;11.55;;;12.50;99.90;;;;;;5018865;28;20063;-61
2022/03/28 11:28:15;;;;;;;16.70;13.60;;;12.70;99.90;;;;;;5000812;28;20140;-61
2022/03/28 11:30:45;;;;;;;16.38;13.95;;;12.90;99.90;;;;;;5007562;28;20109;-61
2022/03/28 11:33:17;;;;;;;15.95;12.48;;;13.00;99.90;;;;;;5009328;28;20057;-61
2022/03/28 11:36:04;;;;;;;16.00;14.30;;;13.30;99.90;;;;;;5008191;28;20062;-62
2022/03/28 11:38:33;;;;;;;15.23;13.63;;;13.40;99.90;;;;;;5010434;28;20141;-61
2022/03/28 11:41:01;;;;;;;12.88;11.48;;;13.70;99.90;;;;;;5011249;28;20049;-61
2022/03/28 11:43:44;;;;;;;16.55;12.35;;;14.00;99.90;;;;;;5018357;28;20497;-62
2022/03/28 11:46:16;;;;;;;12.77;11.25;;;14.30;99.90;;;;;;5018017;28;20481;-62
2022/03/28 11:48:57;;;;;;;11.65;10.45;;;14.50;99.90;;;;;;5016284;28;20049;-62
2022/03/28 11:51:26;;;;;;;12.25;11.02;;;14.80;99.90;;;;;;5017446;28;20136;-62
2022/03/28 11:53:53;;;;;;;13.02;10.80;;;14.80;99.90;;;;;;5017666;28;20136;-61
2022/03/28 11:56:25;;;;;;;13.07;11.75;;;14.80;99.90;;;;;;5017058;28;20100;-62
2022/03/28 11:58:58;;;;;;;13.13;11.68;;;14.90;99.90;;;;;;5014874;28;20151;-62
2022/03/28 12:01:24;;;;;;;;;;;15.00;99.90;;;;;;5016915;28;20132;-62
2022/03/28 12:03:51;;;;;;;11.18;9.98;;;15.20;99.90;;;;;;5016848;28;19929;-62
2022/03/28 12:06:35;;;;;;;12.38;11.18;;;15.40;99.90;;;;;;5019830;28;20060;-62
2022/03/28 12:09:04;;;;;;;12.20;11.00;;;15.50;99.90;;;;;;5015606;28;20145;-62
2022/03/28 12:11:30;;;;;;;12.18;10.90;;;15.70;99.90;;;;;;5021943;28;20060;-62
2022/03/28 12:13:58;;;;;;;10.73;9.73;;;15.80;99.90;;;;;;5017831;28;20132;-62
2022/03/28 12:16:25;;;;;;;10.32;9.23;;;15.90;99.90;;;;;;5021001;28;20057;-62
2022/03/28 12:18:53;;;;;;;9.05;8.18;;;16.40;99.90;;;;;;5003782;28;20112;-62
2022/03/28 12:21:20;;;;;;;9.40;8.50;;;16.70;99.90;;;;;;5000847;28;20108;-62
2022/03/28 12:23:47;;;;;;;9.02;8.23;;;17.10;99.90;;;;;;5002136;28;20131;-63
2022/03/28 12:26:14;;;;;;;8.93;8.10;;;17.20;99.90;;;;;;5005315;28;20084;-62
2022/03/28 12:28:45;;;;;;;9.25;8.35;;;17.70;99.90;;;;;;5011881;28;20050;-62
2022/03/28 12:31:12;;;;;;;7.88;7.10;;;18.00;99.90;;;;;;5001548;28;20116;-62
2022/03/28 12:33:40;;;;;;;7.78;6.97;;;18.30;99.90;;;;;;5003662;28;20057;-63
2022/03/28 12:36:08;;;;;;;8.07;7.30;;;18.40;99.90;;;;;;5018619;28;20500;-62
2022/03/28 12:38:34;;;;;;;7.60;6.90;;;18.50;99.90;;;;;;5012122;28;20052;-62
2022/03/28 12:41:04;;;;;;;7.22;6.53;;;18.50;99.90;;;;;;5002249;28;20077;-62
2022/03/28 12:43:31;;;;;;;6.20;5.60;;;18.60;99.90;;;;;;5002396;28;20604;-63
2022/03/28 12:45:59;;;;;;;6.40;5.75;;;18.90;99.90;;;;;;5009824;28;20049;-62
2022/03/28 12:48:36;;;;;;;6.53;5.90;;;19.10;99.90;;;;;;5010401;28;20559;-62
2022/03/28 12:51:05;;;;;;;6.35;5.75;;;18.90;99.90;;;;;;5001748;28;20336;-62
2022/03/28 12:53:33;;;;;;;5.38;4.88;;;18.80;99.90;;;;;;5000887;28;20312;-62
2022/03/28 12:56:19;;;;;;;5.47;4.85;;;18.80;99.90;;;;;;5016445;28;20146;-62
2022/03/28 12:59:02;;;;;;;5.20;4.70;;;18.80;99.90;;;;;;5013094;28;20085;-62
2022/03/28 13:01:30;;;;;;;5.20;4.70;;;18.90;99.90;;;;;;5016701;28;20054;-62